Time;durP1;ratioP1;P1;durP2;ratioP2;P2;SDS_P1;SDS_P2;PMS_P1;PMS_P2;Temp;Humidity;BMP_temperature;BMP_pressure;BME280_temperature;BME280_humidity;BME280_pressure;Samples;Min_cycle;Max_cycle;Signal;HPM_P1;HPM_P2
2022/06/16 00:01:24;;;;;;;1.63;1.52;;;16.50;85.10;;;;;;7373915;19;20336;-78
2022/06/16 00:03:50;;;;;;;1.80;1.50;;;16.50;85.90;;;;;;7376496;19;20802;-75
2022/06/16 00:06:16;;;;;;;1.90;1.50;;;16.40;87.00;;;;;;7381559;19;20348;-75
2022/06/16 00:08:41;;;;;;;1.67;1.58;;;16.40;87.50;;;;;;7381791;19;20827;-75
2022/06/16 00:11:16;;;;;;;1.50;1.40;;;16.30;89.30;;;;;;7377790;19;20356;-75
2022/06/16 00:13:41;;;;;;;1.80;1.70;;;16.20;90.00;;;;;;7379049;19;20337;-76
2022/06/16 00:16:07;;;;;;;2.67;1.80;;;16.20;90.30;;;;;;7379313;19;20353;-75
2022/06/16 00:18:33;;;;;;;1.67;1.57;;;16.10;91.30;;;;;;7382270;19;20344;-74
2022/06/16 00:20:59;;;;;;;1.98;1.58;;;16.10;91.70;;;;;;7375867;19;20356;-74
2022/06/16 00:23:24;;;;;;;3.17;1.87;;;16.00;92.10;;;;;;7380475;19;20324;-74
2022/06/16 00:25:50;;;;;;;2.22;1.90;;;16.00;92.30;;;;;;7377734;19;20352;-76
2022/06/16 00:28:15;;;;;;;1.97;1.60;;;16.00;93.30;;;;;;7382845;19;20416;-74
2022/06/16 00:30:41;;;;;;;2.30;1.80;;;16.00;93.20;;;;;;7379213;19;20321;-75
2022/06/16 00:33:07;;;;;;;1.70;1.60;;;16.00;93.40;;;;;;7375958;19;20341;-78
2022/06/16 00:35:33;;;;;;;1.70;1.60;;;15.90;94.30;;;;;;7377758;19;20340;-74
2022/06/16 00:37:59;;;;;;;1.80;1.70;;;15.90;94.60;;;;;;7377515;19;20327;-74
2022/06/16 00:40:25;;;;;;;1.67;1.58;;;15.90;95.40;;;;;;7376712;19;20348;-77
2022/06/16 00:42:51;;;;;;;2.67;1.80;;;15.80;96.00;;;;;;7373425;19;20343;-75
2022/06/16 00:45:48;;;;;;;2.13;1.57;;;15.80;95.90;;;;;;7374399;19;20898;-75
2022/06/16 00:48:18;;;;;;;2.33;1.98;;;15.70;96.60;;;;;;7275699;19;2004750;-74
2022/06/16 00:50:43;;;;;;;1.70;1.60;;;15.60;97.10;;;;;;7379469;19;20327;-76
2022/06/16 00:53:09;;;;;;;1.60;1.50;;;15.60;98.10;;;;;;7375185;19;20320;-74
2022/06/16 00:55:34;;;;;;;1.60;1.50;;;15.60;98.10;;;;;;7384598;19;20911;-74
2022/06/16 00:58:00;;;;;;;2.53;1.63;;;15.60;99.10;;;;;;7386471;19;20328;-74
2022/06/16 01:00:33;;;;;;;1.93;1.70;;;15.50;99.90;;;;;;7382641;19;20404;-73
2022/06/16 01:02:58;;;;;;;3.13;1.70;;;15.50;99.50;;;;;;7386409;19;20333;-74
2022/06/16 01:05:24;;;;;;;2.13;1.77;;;15.40;99.90;;;;;;7383292;19;20751;-73
2022/06/16 01:07:49;;;;;;;1.70;1.60;;;15.40;99.90;;;;;;7386034;19;20404;-74
2022/06/16 01:10:15;;;;;;;2.20;2.00;;;15.30;99.90;;;;;;7380208;19;20345;-74
2022/06/16 01:16:18;;;;;;;1.58;1.48;;;15.20;99.90;;;;;;7278649;19;2004977;-75
2022/06/16 01:18:57;;;;;;;1.90;1.80;;;15.20;99.90;;;;;;7280536;19;2004337;-76
2022/06/16 01:21:28;;;;;;;2.75;1.90;;;15.00;99.90;;;;;;7278191;19;2004360;-75
2022/06/16 01:23:56;;;;;;;1.80;1.70;;;15.10;99.90;;;;;;7382199;19;20317;-73
2022/06/16 01:26:40;;;;;;;2.13;1.93;;;15.00;99.90;;;;;;7381189;19;20312;-74
2022/06/16 01:29:47;;;;;;;2.08;1.98;;;15.00;99.90;;;;;;7381986;19;21171;-74
2022/06/16 01:32:30;;;;;;;2.13;1.92;;;14.90;99.90;;;;;;7276851;19;2004397;-76
2022/06/16 01:35:10;;;;;;;1.75;1.65;;;14.90;99.90;;;;;;7280226;19;2004426;-74
2022/06/16 01:37:53;;;;;;;2.38;1.67;;;14.80;99.90;;;;;;7381369;19;20336;-77
2022/06/16 01:40:28;;;;;;;2.22;1.88;;;14.80;99.90;;;;;;7274294;19;2019812;-75
2022/06/16 01:42:57;;;;;;;2.33;2.13;;;14.80;99.90;;;;;;7380839;19;20316;-73
2022/06/16 01:45:56;;;;;;;2.05;1.85;;;14.80;99.90;;;;;;7380926;19;20357;-74
2022/06/16 01:48:22;;;;;;;2.55;2.10;;;14.80;99.90;;;;;;7279349;19;2004432;-74
2022/06/16 01:50:59;;;;;;;1.80;1.70;;;14.70;99.90;;;;;;7377759;19;20432;-74
2022/06/16 01:53:43;;;;;;;2.00;1.90;;;14.70;99.90;;;;;;7275645;19;2004343;-75
2022/06/16 01:56:23;;;;;;;2.35;2.00;;;14.70;99.90;;;;;;7378773;19;20704;-75
2022/06/16 01:58:58;;;;;;;2.72;2.47;;;14.70;99.90;;;;;;7380235;19;20336;-78
2022/06/16 02:01:25;;;;;;;1.95;1.85;;;14.60;99.90;;;;;;7268214;19;2006570;-74
2022/06/16 02:03:54;;;;;;;1.75;1.63;;;14.40;99.90;;;;;;7376321;19;20364;-78
2022/06/16 02:06:28;;;;;;;3.50;2.15;;;14.30;99.90;;;;;;7375676;19;20344;-77
2022/06/16 02:09:01;;;;;;;2.00;1.90;;;14.10;99.90;;;;;;7374530;19;20320;-73
2022/06/16 02:11:33;;;;;;;2.77;1.90;;;14.10;99.90;;;;;;7371816;19;20366;-73
2022/06/16 02:14:21;;;;;;;3.40;1.98;;;14.00;99.90;;;;;;7373701;19;21594;-76
2022/06/16 02:16:49;;;;;;;3.15;2.30;;;14.10;99.90;;;;;;7269888;19;2004343;-80
2022/06/16 02:19:17;;;;;;;2.37;1.83;;;14.10;99.90;;;;;;7377700;19;20404;-73
2022/06/16 02:21:46;;;;;;;2.35;1.95;;;14.00;99.90;;;;;;7374315;19;20408;-74
2022/06/16 02:24:13;;;;;;;2.22;2.03;;;14.00;99.90;;;;;;7376062;19;20412;-80
2022/06/16 02:26:39;;;;;;;2.90;2.25;;;14.00;99.90;;;;;;7377223;19;20344;-73
2022/06/16 02:29:34;;;;;;;2.80;2.60;;;13.90;99.90;;;;;;7375252;19;20368;-76
2022/06/16 02:32:21;;;;;;;2.35;2.10;;;13.70;99.90;;;;;;7271098;19;2004488;-73
2022/06/16 02:35:14;;;;;;;3.20;2.20;;;13.70;99.90;;;;;;7377513;19;20312;-84
2022/06/16 02:37:51;;;;;;;3.28;2.17;;;13.70;99.90;;;;;;7276523;19;2004905;-73
2022/06/16 02:40:40;;;;;;;2.60;2.40;;;13.70;99.90;;;;;;7376697;19;20356;-79
2022/06/16 02:43:30;;;;;;;2.22;2.00;;;13.70;99.90;;;;;;7274731;19;2005070;-73
2022/06/16 02:46:12;;;;;;;3.13;2.30;;;13.60;99.90;;;;;;7273714;19;2010653;-77
2022/06/16 02:48:47;;;;;;;2.28;2.08;;;13.60;99.90;;;;;;7378437;19;20352;-80
2022/06/16 02:51:16;;;;;;;2.25;2.05;;;13.60;99.90;;;;;;7373105;19;21207;-73
2022/06/16 02:54:10;;;;;;;2.10;2.00;;;13.50;99.90;;;;;;7375937;19;20353;-80
2022/06/16 02:57:11;;;;;;;2.83;2.10;;;13.60;99.90;;;;;;7273441;19;2004939;-77
2022/06/16 02:59:40;;;;;;;2.67;2.47;;;13.60;99.90;;;;;;7274549;19;2004572;-79
2022/06/16 03:02:14;;;;;;;2.45;2.25;;;13.50;99.90;;;;;;7374674;19;20367;-84
2022/06/16 03:04:43;;;;;;;2.60;1.90;;;13.50;99.90;;;;;;7377570;19;20312;-76
2022/06/16 03:07:12;;;;;;;3.88;2.47;;;13.50;99.90;;;;;;7372847;19;21307;-80
2022/06/16 03:09:38;;;;;;;2.72;2.53;;;13.70;99.90;;;;;;7376589;19;20340;-76
2022/06/16 03:12:05;;;;;;;2.20;2.08;;;13.60;99.90;;;;;;7375751;19;20345;-76
2022/06/16 03:14:31;;;;;;;3.17;2.72;;;13.70;99.90;;;;;;7374382;19;20669;-84
2022/06/16 03:16:57;;;;;;;4.57;2.60;;;13.70;99.90;;;;;;7374421;19;20353;-75
2022/06/16 03:19:23;;;;;;;2.73;2.47;;;13.60;99.90;;;;;;7374624;19;20956;-73
2022/06/16 03:21:49;;;;;;;4.03;2.22;;;13.70;99.90;;;;;;7376792;19;20407;-77
2022/06/16 03:24:17;;;;;;;2.30;2.10;;;13.80;99.90;;;;;;7377568;19;20846;-76
2022/06/16 03:26:45;;;;;;;2.60;2.40;;;13.90;99.90;;;;;;7375573;19;20328;-77
2022/06/16 03:29:10;;;;;;;2.13;1.93;;;13.90;99.90;;;;;;7377742;19;20333;-74
2022/06/16 03:31:37;;;;;;;3.03;2.28;;;14.00;99.90;;;;;;7375272;19;20416;-74
2022/06/16 03:34:03;;;;;;;2.37;2.17;;;14.10;99.90;;;;;;7361721;19;20395;-76
2022/06/16 03:36:34;;;;;;;2.58;2.38;;;14.10;99.90;;;;;;7375497;19;20357;-74
2022/06/16 03:39:01;;;;;;;3.23;2.13;;;14.10;99.90;;;;;;7378893;19;20344;-77
2022/06/16 03:41:27;;;;;;;2.45;2.25;;;14.20;99.90;;;;;;7375826;19;20348;-81
2022/06/16 03:43:57;;;;;;;2.03;1.90;;;14.20;99.90;;;;;;7378933;19;20325;-75
2022/06/16 03:46:23;;;;;;;2.00;1.90;;;14.30;99.90;;;;;;7381699;19;20329;-77
2022/06/16 03:49:02;;;;;;;2.22;2.00;;;14.40;99.90;;;;;;7380609;19;20321;-76
2022/06/16 03:51:40;;;;;;;4.00;2.40;;;14.50;99.90;;;;;;7385198;19;20309;-75
2022/06/16 03:54:07;;;;;;;2.50;2.30;;;14.50;99.90;;;;;;7382290;19;20340;-74
2022/06/16 03:56:33;;;;;;;4.10;2.42;;;14.60;99.90;;;;;;7381044;19;20385;-73
2022/06/16 03:59:01;;;;;;;2.20;2.00;;;14.60;99.90;;;;;;7382500;19;20333;-75
2022/06/16 04:01:27;;;;;;;2.67;2.47;;;14.60;99.90;;;;;;7384363;19;20317;-78
2022/06/16 04:04:00;;;;;;;5.10;2.67;;;14.60;99.90;;;;;;7385847;19;20890;-73
2022/06/16 04:06:34;;;;;;;2.60;2.40;;;14.60;99.90;;;;;;7380910;19;20321;-77
2022/06/16 04:09:00;;;;;;;3.10;2.40;;;14.60;99.90;;;;;;7381330;19;20321;-79
2022/06/16 04:11:30;;;;;;;2.83;2.00;;;14.60;99.90;;;;;;7380067;19;20719;-73
2022/06/16 04:14:09;;;;;;;2.15;1.95;;;14.70;99.90;;;;;;7379894;19;20992;-73
2022/06/16 04:16:39;;;;;;;2.60;2.40;;;14.70;99.90;;;;;;7382378;19;20692;-74
2022/06/16 04:19:05;;;;;;;5.20;2.85;;;14.70;99.90;;;;;;7386883;19;20903;-75
2022/06/16 04:21:36;;;;;;;3.00;2.70;;;14.70;99.90;;;;;;7384362;19;20439;-74
2022/06/16 04:24:18;;;;;;;3.27;2.40;;;14.80;99.90;;;;;;7385823;19;20340;-79
2022/06/16 04:26:47;;;;;;;2.95;2.40;;;14.80;99.90;;;;;;7387421;19;20348;-76
2022/06/16 04:29:14;;;;;;;2.83;2.50;;;14.90;99.90;;;;;;7385347;19;20356;-77
2022/06/16 04:31:42;;;;;;;2.30;2.10;;;15.00;99.90;;;;;;7386637;19;20328;-74
2022/06/16 04:34:09;;;;;;;2.40;2.20;;;15.10;99.90;;;;;;7389586;19;20353;-74
2022/06/16 04:36:38;;;;;;;2.60;2.40;;;15.30;99.90;;;;;;7389226;19;20881;-73
2022/06/16 04:39:10;;;;;;;2.92;2.20;;;15.40;99.90;;;;;;7389879;19;20910;-73
2022/06/16 04:41:37;;;;;;;3.25;2.55;;;15.50;99.90;;;;;;7388858;19;20344;-73
2022/06/16 04:44:05;;;;;;;3.35;2.90;;;15.60;99.90;;;;;;7389178;19;20341;-79
2022/06/16 04:46:36;;;;;;;2.53;2.33;;;15.70;99.90;;;;;;7388983;19;20334;-78
2022/06/16 04:49:04;;;;;;;3.78;2.55;;;15.70;99.90;;;;;;7389854;19;20365;-74
2022/06/16 04:51:36;;;;;;;2.80;2.40;;;15.80;99.90;;;;;;7388729;19;20356;-75
2022/06/16 04:54:02;;;;;;;3.63;2.33;;;15.90;99.90;;;;;;7388834;19;20480;-79
2022/06/16 04:56:46;;;;;;;2.72;2.30;;;15.90;99.90;;;;;;7389951;19;20352;-76
2022/06/16 04:59:28;;;;;;;2.57;2.23;;;16.10;99.90;;;;;;7287425;19;2004566;-75
2022/06/16 05:04:39;;;;;;;2.65;2.45;;;16.50;99.90;;;;;;7384953;19;20356;-75
2022/06/16 05:18:27;;;;;;;3.60;3.03;;;16.90;99.90;;;;;;7283383;19;2004245;-74
2022/06/16 05:21:27;;;;;;;2.53;2.33;;;16.90;99.90;;;;;;7282066;19;2004619;-75
2022/06/16 05:32:02;;;;;;;4.75;2.85;;;17.60;99.90;;;;;;7385178;19;20339;-74
2022/06/16 05:37:24;;;;;;;2.83;2.60;;;17.80;99.90;;;;;;7386135;19;20383;-74
2022/06/16 05:40:08;;;;;;;8.68;3.10;;;17.90;99.90;;;;;;7385612;19;20375;-74
2022/06/16 05:45:43;;;;;;;4.65;2.53;;;18.50;99.90;;;;;;7352208;19;20372;-85
2022/06/16 05:48:13;;;;;;;4.43;2.77;;;18.70;99.90;;;;;;7385161;19;20320;-79
2022/06/16 05:50:42;;;;;;;4.90;3.30;;;18.80;99.90;;;;;;7385223;19;20328;-82
2022/06/16 05:53:07;;;;;;;3.00;2.70;;;18.90;99.90;;;;;;7384154;19;20356;-78
2022/06/16 05:55:38;;;;;;;2.55;2.30;;;18.90;99.90;;;;;;7383026;19;20348;-81
2022/06/16 05:58:05;;;;;;;2.83;2.58;;;19.00;99.90;;;;;;7385589;19;20341;-79
2022/06/16 06:00:40;;;;;;;3.17;2.88;;;19.20;99.90;;;;;;7384843;19;20339;-83
2022/06/16 06:03:10;;;;;;;4.90;2.90;;;19.40;99.90;;;;;;7384739;19;21290;-86
2022/06/16 06:05:38;;;;;;;2.50;2.30;;;19.50;99.90;;;;;;7382834;19;20702;-81
2022/06/16 06:16:25;;;;;;;4.68;2.75;;;20.00;99.90;;;;;;7283982;19;2004897;-80
2022/06/16 06:18:52;;;;;;;4.05;2.97;;;20.20;99.90;;;;;;7392900;19;20309;-82
2022/06/16 06:21:57;;;;;;;3.40;3.10;;;20.30;99.90;;;;;;7380810;19;20669;-79
2022/06/16 06:24:04;;;;;;;2.78;2.58;;;20.50;99.90;;;;;;7277503;19;2004339;-78
2022/06/16 06:26:30;;;;;;;4.07;2.88;;;20.90;99.90;;;;;;7378231;19;20321;-78
2022/06/16 06:28:55;;;;;;;3.53;2.50;;;21.20;99.90;;;;;;7378720;19;20385;-78
2022/06/16 06:31:21;;;;;;;3.50;3.20;;;21.70;99.90;;;;;;7376646;19;20339;-80
2022/06/16 06:33:46;;;;;;;4.20;2.88;;;21.70;99.90;;;;;;7379619;19;20317;-76
2022/06/16 06:36:14;;;;;;;3.90;2.70;;;21.60;99.90;;;;;;7378206;19;20317;-76
2022/06/16 06:38:39;;;;;;;4.22;2.72;;;21.70;99.90;;;;;;7374120;19;20317;-78
2022/06/16 06:41:06;;;;;;;3.20;2.63;;;21.80;99.90;;;;;;7377895;19;20328;-77
2022/06/16 06:43:31;;;;;;;5.13;3.38;;;22.00;99.90;;;;;;7375680;19;20893;-77
2022/06/16 06:45:57;;;;;;;5.07;3.10;;;21.90;99.90;;;;;;7375893;19;20325;-80
2022/06/16 06:48:22;;;;;;;3.50;3.20;;;21.80;99.90;;;;;;7380422;19;20668;-76
2022/06/16 06:50:48;;;;;;;4.93;3.10;;;21.90;99.90;;;;;;7360405;19;20321;-80
2022/06/16 06:53:14;;;;;;;3.70;2.90;;;22.10;99.90;;;;;;7385030;19;20896;-82
2022/06/16 06:55:43;;;;;;;3.30;2.78;;;22.20;99.90;;;;;;7383031;19;20333;-75
2022/06/16 06:58:11;;;;;;;3.17;2.83;;;22.30;99.90;;;;;;7377401;19;20356;-78
2022/06/16 07:00:37;;;;;;;3.17;2.87;;;22.30;99.90;;;;;;7380659;19;20337;-80
2022/06/16 07:03:02;;;;;;;3.00;2.70;;;22.60;99.90;;;;;;7384060;19;20823;-81
2022/06/16 07:05:28;;;;;;;2.65;2.30;;;22.90;99.90;;;;;;7382995;19;20336;-83
2022/06/16 07:07:58;;;;;;;3.27;2.97;;;23.30;99.90;;;;;;7387328;19;20321;-82
2022/06/16 07:10:23;;;;;;;3.13;2.67;;;23.30;99.90;;;;;;7386457;19;20312;-80
2022/06/16 07:12:49;;;;;;;3.63;2.90;;;23.40;99.90;;;;;;7384412;19;20323;-87
2022/06/16 07:15:14;;;;;;;3.25;2.90;;;23.50;99.90;;;;;;7383280;19;20357;-80
2022/06/16 07:17:40;;;;;;;2.50;2.30;;;23.70;99.90;;;;;;7388430;19;20332;-82
2022/06/16 07:20:06;;;;;;;4.90;2.80;;;24.10;99.90;;;;;;7386765;19;20332;-80
2022/06/16 07:22:32;;;;;;;2.83;2.30;;;24.20;99.90;;;;;;7387197;19;20448;-83
2022/06/16 07:24:57;;;;;;;2.37;2.07;;;24.50;99.90;;;;;;7387826;19;20324;-86
2022/06/16 07:27:23;;;;;;;4.50;2.85;;;24.80;99.90;;;;;;7389487;19;20327;-82
2022/06/16 07:29:49;;;;;;;3.40;2.50;;;25.00;99.90;;;;;;7385168;19;20332;-80
2022/06/16 07:32:16;;;;;;;2.63;2.40;;;25.30;99.90;;;;;;7381359;19;20332;-81
2022/06/16 07:34:42;;;;;;;2.90;2.45;;;25.50;99.90;;;;;;7384330;19;20332;-84
2022/06/16 07:37:08;;;;;;;3.83;2.50;;;25.60;99.90;;;;;;7382681;19;21045;-83
2022/06/16 07:39:33;;;;;;;2.80;2.43;;;25.80;99.90;;;;;;7385294;19;20324;-82
2022/06/16 07:41:59;;;;;;;3.77;2.40;;;26.20;99.90;;;;;;7384785;19;20321;-79
2022/06/16 07:44:25;;;;;;;3.07;2.40;;;26.60;99.90;;;;;;7384888;19;20317;-79
2022/06/16 07:46:51;;;;;;;2.72;2.10;;;26.90;99.70;;;;;;7384867;19;20297;-79
2022/06/16 07:49:22;;;;;;;2.30;2.10;;;27.10;99.00;;;;;;7386909;19;20301;-81
2022/06/16 07:51:49;;;;;;;2.10;1.90;;;27.20;98.20;;;;;;7384110;19;20329;-79
2022/06/16 07:54:14;;;;;;;3.10;2.03;;;27.30;98.90;;;;;;7387575;19;20965;-78
2022/06/16 07:56:40;;;;;;;2.75;2.08;;;27.80;98.10;;;;;;7385587;19;20312;-78
2022/06/16 07:59:05;;;;;;;3.43;2.10;;;28.10;96.60;;;;;;7387733;19;20399;-79
2022/06/16 08:01:33;;;;;;;2.33;1.83;;;27.80;94.70;;;;;;7386650;19;20315;-80
2022/06/16 08:04:05;;;;;;;2.33;2.05;;;27.60;95.70;;;;;;7388041;19;20312;-78
2022/06/16 08:06:30;;;;;;;2.10;1.90;;;27.90;94.80;;;;;;7385474;19;20668;-78
2022/06/16 08:08:57;;;;;;;2.20;1.90;;;28.20;94.60;;;;;;7389982;19;20960;-79
2022/06/16 08:14:07;;;;;;;2.20;2.00;;;28.70;93.40;;;;;;7286508;19;2004536;-79
2022/06/16 08:16:33;;;;;;;1.87;1.73;;;28.40;92.30;;;;;;7383418;19;20340;-77
2022/06/16 08:19:03;;;;;;;2.30;2.10;;;28.60;92.70;;;;;;7386615;19;20320;-78
2022/06/16 08:21:35;;;;;;;2.13;2.00;;;28.60;91.30;;;;;;7394056;19;20348;-81
2022/06/16 08:25:01;;;;;;;2.25;2.05;;;28.60;91.00;;;;;;7348205;19;20440;-80
2022/06/16 08:28:12;;;;;;;5.10;2.27;;;28.70;91.20;;;;;;7304896;19;2004208;-82
2022/06/16 08:42:50;;;;;;;2.63;2.03;;;28.60;87.10;;;;;;7402035;19;20325;-81
2022/06/16 08:46:09;;;;;;;2.30;2.07;;;28.60;90.10;;;;;;7275479;19;2003914;-81
2022/06/16 08:49:29;;;;;;;2.85;2.15;;;28.80;88.40;;;;;;7371677;19;20864;-78
2022/06/16 08:52:19;;;;;;;2.67;1.98;;;29.00;85.30;;;;;;7271956;19;2004158;-78
2022/06/16 08:55:04;;;;;;;2.20;2.00;;;29.40;87.00;;;;;;7274990;19;2004233;-78
2022/06/16 08:57:42;;;;;;;4.68;2.05;;;29.80;86.20;;;;;;7383127;19;20296;-78
2022/06/16 09:03:45;;;;;;;2.80;2.10;;;30.10;83.80;;;;;;7323871;19;20364;-79
2022/06/16 09:06:36;;;;;;;2.33;2.13;;;30.20;82.70;;;;;;7325888;19;20324;-79
2022/06/16 09:10:23;;;;;;;4.57;2.38;;;29.60;84.30;;;;;;7390163;19;20395;-79
2022/06/16 09:14:00;;;;;;;2.17;1.98;;;29.20;85.40;;;;;;7219029;19;2004334;-79
2022/06/16 09:16:49;;;;;;;2.17;1.95;;;29.60;85.00;;;;;;7159589;19;2004392;-79
2022/06/16 09:23:45;;;;;;;4.30;2.30;;;29.00;83.20;;;;;;7239133;19;20384;-79
2022/06/16 09:27:31;;;;;;;2.28;2.00;;;28.90;84.40;;;;;;7207953;19;2004573;-79
2022/06/16 09:31:39;;;;;;;3.63;1.83;;;29.10;82.60;;;;;;7425784;19;20409;-79
2022/06/16 09:34:52;;;;;;;5.05;1.67;;;29.60;82.40;;;;;;7302035;19;2004230;-78
2022/06/16 09:37:43;;;;;;;2.20;1.80;;;30.00;80.40;;;;;;7236064;19;2004508;-79
2022/06/16 09:41:01;;;;;;;2.10;1.77;;;29.80;79.10;;;;;;7279218;19;2004333;-79
2022/06/16 09:44:39;;;;;;;1.88;1.77;;;29.40;81.60;;;;;;7397648;19;20428;-79
2022/06/16 09:49:07;;;;;;;1.85;1.60;;;29.30;80.60;;;;;;7412377;19;20344;-79
2022/06/16 09:52:53;;;;;;;1.85;1.75;;;29.50;78.80;;;;;;7181902;19;2004021;-79
2022/06/16 09:56:18;;;;;;;1.92;1.73;;;29.20;79.20;;;;;;7237853;19;2003432;-79
2022/06/16 09:58:57;;;;;;;1.80;1.70;;;29.30;80.30;;;;;;7386150;19;20348;-79
2022/06/16 10:01:25;;;;;;;3.53;1.75;;;29.90;79.30;;;;;;7383694;19;20321;-79
2022/06/16 10:04:33;;;;;;;2.07;1.60;;;30.30;75.50;;;;;;7388626;19;20316;-79
2022/06/16 10:07:49;;;;;;;2.00;1.80;;;30.90;75.60;;;;;;7401220;19;20348;-79
2022/06/16 10:10:27;;;;;;;1.80;1.70;;;30.70;67.20;;;;;;7385906;19;20459;-75
2022/06/16 10:12:53;;;;;;;1.63;1.52;;;31.10;67.80;;;;;;7379925;19;21048;-75
2022/06/16 10:15:29;;;;;;;1.80;1.70;;;31.00;67.90;;;;;;7376872;19;20365;-77
2022/06/16 10:17:54;;;;;;;1.55;1.45;;;30.50;63.30;;;;;;7378986;19;20408;-76
2022/06/16 10:20:21;;;;;;;2.35;1.77;;;30.40;66.00;;;;;;7378251;19;20347;-75
2022/06/16 10:22:50;;;;;;;1.50;1.40;;;30.20;66.00;;;;;;7381914;19;20933;-75
2022/06/16 10:25:20;;;;;;;1.67;1.58;;;30.60;67.90;;;;;;7373218;19;20352;-76
2022/06/16 10:27:47;;;;;;;3.53;1.55;;;30.80;65.10;;;;;;7374618;19;20353;-76
2022/06/16 10:30:34;;;;;;;1.50;1.40;;;31.00;65.80;;;;;;7378124;19;20894;-75
2022/06/16 10:33:20;;;;;;;1.70;1.60;;;31.20;65.60;;;;;;7379727;19;20331;-75
2022/06/16 10:35:52;;;;;;;2.65;1.70;;;31.40;66.20;;;;;;7271439;19;2004309;-78
2022/06/16 10:38:36;;;;;;;1.80;1.70;;;31.30;59.80;;;;;;7378540;19;20349;-75
2022/06/16 10:41:04;;;;;;;2.28;1.90;;;30.50;67.20;;;;;;7377864;19;20329;-75
2022/06/16 10:43:30;;;;;;;1.70;1.60;;;30.10;68.20;;;;;;7380438;19;20344;-76
2022/06/16 10:45:59;;;;;;;2.47;1.80;;;30.10;69.10;;;;;;7375594;19;20340;-76
2022/06/16 10:48:34;;;;;;;1.90;1.80;;;30.40;67.20;;;;;;7378609;19;20328;-76
2022/06/16 10:51:15;;;;;;;1.90;1.70;;;30.30;65.60;;;;;;7378985;19;20362;-75
2022/06/16 10:53:46;;;;;;;2.00;1.55;;;30.30;63.60;;;;;;7281497;19;2004301;-75
2022/06/16 10:56:17;;;;;;;1.95;1.70;;;30.60;62.20;;;;;;7377718;19;20353;-75
2022/06/16 10:58:57;;;;;;;1.65;1.38;;;30.40;67.40;;;;;;7378353;19;20882;-76
2022/06/16 11:01:41;;;;;;;1.73;1.60;;;30.70;63.70;;;;;;7376441;19;20340;-76
2022/06/16 11:04:20;;;;;;;1.60;1.50;;;29.90;62.10;;;;;;7275803;19;2004507;-76
2022/06/16 11:06:48;;;;;;;1.65;1.50;;;30.40;67.50;;;;;;7371683;19;20348;-75
2022/06/16 11:09:17;;;;;;;2.30;1.40;;;31.30;66.50;;;;;;7375191;19;21101;-74
2022/06/16 11:12:07;;;;;;;1.80;1.60;;;31.70;65.50;;;;;;7376409;19;20896;-75
2022/06/16 11:14:42;;;;;;;1.80;1.70;;;31.90;60.00;;;;;;7377208;19;20384;-77
2022/06/16 11:17:10;;;;;;;2.05;1.85;;;31.90;59.60;;;;;;7272996;19;2020695;-76
2022/06/16 11:19:43;;;;;;;1.70;1.60;;;30.90;59.60;;;;;;7379887;19;20329;-75
2022/06/16 11:22:34;;;;;;;3.80;1.77;;;30.70;63.10;;;;;;7382131;19;20352;-76
2022/06/16 11:25:01;;;;;;;1.70;1.60;;;30.80;59.90;;;;;;7381960;19;20328;-76
2022/06/16 11:27:28;;;;;;;1.80;1.70;;;30.50;61.80;;;;;;7380993;19;20324;-75
2022/06/16 11:29:54;;;;;;;1.75;1.58;;;30.40;62.70;;;;;;7380226;19;20341;-76
2022/06/16 11:32:24;;;;;;;2.10;1.60;;;30.80;62.10;;;;;;7378282;19;20337;-76
2022/06/16 11:34:49;;;;;;;1.88;1.77;;;31.10;63.10;;;;;;7377564;19;21559;-75
2022/06/16 11:37:18;;;;;;;1.83;1.73;;;31.30;61.20;;;;;;7372434;19;20349;-75
2022/06/16 11:40:07;;;;;;;1.90;1.80;;;31.10;58.50;;;;;;7380584;19;20344;-75
2022/06/16 11:43:02;;;;;;;2.00;1.80;;;31.30;60.10;;;;;;7378919;19;20672;-75
2022/06/16 11:45:36;;;;;;;1.52;1.42;;;31.50;58.10;;;;;;7271106;19;2006836;-75
2022/06/16 11:48:08;;;;;;;13.15;3.47;;;31.90;60.00;;;;;;7374799;19;20344;-75
2022/06/16 11:50:39;;;;;;;7.57;1.50;;;32.00;60.60;;;;;;7376039;19;20863;-75
2022/06/16 11:53:21;;;;;;;1.75;1.60;;;32.50;61.30;;;;;;7374451;19;20480;-75
2022/06/16 11:55:59;;;;;;;1.63;1.52;;;33.20;61.60;;;;;;7265878;19;2004392;-75
2022/06/16 11:59:02;;;;;;;1.73;1.60;;;33.50;58.60;;;;;;7374590;19;20713;-75
2022/06/16 12:01:31;;;;;;;2.65;1.63;;;32.90;57.90;;;;;;7269461;19;2004506;-75
2022/06/16 12:04:29;;;;;;;1.70;1.60;;;32.40;55.00;;;;;;7372140;19;21080;-75
2022/06/16 12:07:17;;;;;;;1.90;1.80;;;32.50;57.40;;;;;;7263030;19;2020126;-75
2022/06/16 12:09:58;;;;;;;1.80;1.70;;;32.70;57.60;;;;;;7271205;19;2004394;-75
2022/06/16 12:12:43;;;;;;;2.17;1.90;;;33.30;59.70;;;;;;7370221;19;20363;-75
2022/06/16 12:15:18;;;;;;;1.77;1.67;;;33.50;56.10;;;;;;7266593;19;2020712;-76
2022/06/16 12:18:05;;;;;;;1.70;1.60;;;32.90;57.80;;;;;;7367864;19;21392;-75
2022/06/16 12:20:52;;;;;;;1.92;1.60;;;32.40;56.70;;;;;;7372045;19;20341;-75
2022/06/16 12:23:38;;;;;;;1.55;1.45;;;33.10;57.70;;;;;;7272303;19;2004355;-75
2022/06/16 12:26:11;;;;;;;1.60;1.50;;;33.20;57.50;;;;;;7368186;19;20661;-75
2022/06/16 12:28:46;;;;;;;1.57;1.47;;;32.10;53.80;;;;;;7267179;19;2020283;-75
2022/06/16 12:31:20;;;;;;;1.40;1.30;;;32.50;56.40;;;;;;7368057;19;20341;-75
2022/06/16 12:34:07;;;;;;;1.93;1.60;;;32.20;54.60;;;;;;7370595;19;20355;-76
2022/06/16 12:36:42;;;;;;;1.40;1.30;;;32.20;53.40;;;;;;7367374;19;21000;-75
2022/06/16 12:39:35;;;;;;;2.00;1.50;;;32.40;55.20;;;;;;7267494;19;2011311;-75
2022/06/16 12:42:05;;;;;;;1.40;1.30;;;32.50;54.60;;;;;;7371330;19;20344;-75
2022/06/16 12:44:37;;;;;;;1.70;1.60;;;32.10;53.30;;;;;;7371991;19;20325;-77
2022/06/16 12:47:11;;;;;;;2.05;1.73;;;31.60;56.10;;;;;;7369441;19;20990;-76
2022/06/16 12:49:41;;;;;;;1.90;1.60;;;31.70;56.40;;;;;;7271197;19;2004342;-76
2022/06/16 12:52:14;;;;;;;1.70;1.53;;;31.40;55.60;;;;;;7370798;19;20328;-75
2022/06/16 12:54:51;;;;;;;1.38;1.27;;;31.00;55.60;;;;;;7372879;19;20387;-75
2022/06/16 12:57:22;;;;;;;3.22;1.52;;;31.30;57.20;;;;;;7370541;19;20365;-76
2022/06/16 12:59:59;;;;;;;1.48;1.38;;;31.50;55.20;;;;;;7373623;19;20363;-75
2022/06/16 13:02:31;;;;;;;3.40;1.60;;;31.80;54.80;;;;;;7374240;19;20348;-76
2022/06/16 13:04:57;;;;;;;1.90;1.60;;;32.50;56.80;;;;;;7368464;19;20374;-75
2022/06/16 13:07:25;;;;;;;1.63;1.50;;;32.60;57.00;;;;;;7369133;19;20376;-76
2022/06/16 13:09:50;;;;;;;2.13;1.60;;;32.10;54.80;;;;;;7374961;19;20336;-75
2022/06/16 13:12:25;;;;;;;2.77;1.57;;;32.20;54.00;;;;;;7371701;19;20340;-76
2022/06/16 13:14:59;;;;;;;1.65;1.55;;;32.90;54.50;;;;;;7369910;19;20341;-75
2022/06/16 13:17:29;;;;;;;2.20;1.52;;;33.80;55.40;;;;;;7370331;19;20349;-75
2022/06/16 13:20:00;;;;;;;1.98;1.50;;;32.90;51.00;;;;;;7371865;19;20334;-75
2022/06/16 13:22:31;;;;;;;1.55;1.45;;;32.90;53.50;;;;;;7374682;19;20340;-75
2022/06/16 13:24:58;;;;;;;2.03;1.55;;;33.60;52.20;;;;;;7368743;19;20379;-75
2022/06/16 13:27:39;;;;;;;2.17;1.50;;;33.70;52.50;;;;;;7370383;19;20353;-75
2022/06/16 13:30:05;;;;;;;3.80;1.70;;;33.40;52.70;;;;;;7373548;19;21003;-76
2022/06/16 13:32:39;;;;;;;1.67;1.57;;;34.00;53.30;;;;;;7374566;19;21197;-76
2022/06/16 13:35:14;;;;;;;3.20;1.48;;;33.40;49.90;;;;;;7368941;19;20328;-76
2022/06/16 13:37:49;;;;;;;1.30;1.30;;;33.40;51.50;;;;;;7267258;19;2015948;-75
2022/06/16 13:40:24;;;;;;;5.67;2.10;;;34.20;50.80;;;;;;7370915;19;20352;-75
2022/06/16 13:42:53;;;;;;;3.38;1.60;;;35.00;50.30;;;;;;7368386;19;20878;-75
2022/06/16 13:45:31;;;;;;;3.05;1.70;;;35.30;48.90;;;;;;7370489;19;20350;-76
2022/06/16 13:48:08;;;;;;;2.85;1.60;;;34.70;49.50;;;;;;7370409;19;20341;-75
2022/06/16 13:50:53;;;;;;;1.70;1.60;;;35.40;51.80;;;;;;7377995;19;20351;-75
2022/06/16 13:53:31;;;;;;;4.82;2.40;;;35.10;48.50;;;;;;7273318;19;2004698;-75
2022/06/16 13:56:04;;;;;;;2.83;1.60;;;35.40;49.20;;;;;;7371936;19;20827;-75
2022/06/16 13:58:30;;;;;;;2.72;1.60;;;35.50;48.70;;;;;;7365144;19;20329;-75
2022/06/16 14:01:19;;;;;;;1.63;1.52;;;35.10;48.20;;;;;;7371893;19;20972;-75
2022/06/16 14:04:09;;;;;;;3.30;1.70;;;35.50;48.80;;;;;;7277616;19;2015628;-75
2022/06/16 14:06:36;;;;;;;1.60;1.50;;;35.60;49.00;;;;;;7373534;19;20325;-75
2022/06/16 14:09:10;;;;;;;1.90;1.63;;;35.90;48.90;;;;;;7376909;19;21001;-75
2022/06/16 14:11:36;;;;;;;1.50;1.40;;;36.40;48.20;;;;;;7379843;19;20404;-75
2022/06/16 14:14:20;;;;;;;1.88;1.60;;;35.50;49.50;;;;;;7378044;19;20396;-76
2022/06/16 14:16:53;;;;;;;2.50;1.80;;;35.30;48.30;;;;;;7276148;19;2004722;-76
2022/06/16 14:19:36;;;;;;;1.70;1.60;;;35.60;47.90;;;;;;7380421;19;20680;-76
2022/06/16 14:22:12;;;;;;;20.40;5.07;;;36.30;48.50;;;;;;7380831;19;20353;-75
2022/06/16 14:25:09;;;;;;;2.88;1.50;;;35.60;48.40;;;;;;7379436;19;21301;-75
2022/06/16 14:27:50;;;;;;;2.33;1.60;;;35.70;47.80;;;;;;7275496;19;2005420;-75
2022/06/16 14:30:19;;;;;;;1.50;1.40;;;34.80;48.50;;;;;;7272443;19;2004467;-75